createdAt,value
2018-09-08T00:01:11.810Z,13.50
2018-09-08T00:03:44.284Z,13.00
2018-09-08T00:06:19.549Z,13.50
2018-09-08T00:08:52.119Z,14.70
2018-09-08T00:11:23.463Z,13.40
2018-09-08T00:13:55.226Z,13.50
2018-09-08T00:16:31.320Z,13.40
2018-09-08T00:19:06.817Z,13.40
2018-09-08T00:21:44.008Z,13.50
2018-09-08T00:24:19.387Z,12.20
2018-09-08T00:26:49.880Z,13.40
2018-09-08T00:29:24.446Z,13.40
2018-09-08T00:31:56.124Z,13.30
2018-09-08T00:34:28.390Z,13.30
2018-09-08T00:36:59.079Z,13.30
2018-09-08T00:39:29.636Z,13.30
2018-09-08T00:42:00.967Z,13.30
2018-09-08T00:44:31.515Z,13.30
2018-09-08T00:47:02.082Z,13.30
2018-09-08T00:49:33.406Z,13.40
2018-09-08T00:52:04.162Z,13.30
2018-09-08T00:54:34.710Z,13.30
2018-09-08T00:57:05.646Z,13.30
2018-09-08T00:59:36.941Z,13.20
2018-09-08T01:02:07.450Z,13.10
2018-09-08T01:04:39.070Z,13.20
2018-09-08T01:07:14.450Z,13.00
2018-09-08T01:09:45.287Z,12.90
2018-09-08T01:12:15.791Z,12.90
2018-09-08T01:14:47.275Z,12.80
2018-09-08T01:17:17.945Z,12.80
2018-09-08T01:19:48.275Z,12.80
2018-09-08T01:22:19.254Z,12.80
2018-09-08T01:24:49.786Z,12.60
2018-09-08T01:27:20.252Z,12.50
2018-09-08T01:29:50.703Z,12.50
2018-09-08T01:32:22.098Z,12.60
2018-09-08T01:34:52.710Z,12.70
2018-09-08T01:37:24.712Z,12.80
2018-09-08T01:39:58.291Z,12.70
2018-09-08T01:42:31.884Z,12.60
2018-09-08T01:45:03.159Z,12.60
2018-09-08T01:47:35.583Z,12.50
2018-09-08T01:50:07.056Z,12.60
2018-09-08T01:52:37.427Z,12.60
2018-09-08T01:55:11.471Z,12.70
2018-09-08T01:57:42.049Z,12.70
2018-09-08T02:00:13.538Z,12.80
2018-09-08T02:02:43.985Z,12.80
2018-09-08T02:05:14.757Z,12.70
2018-09-08T02:07:45.438Z,12.80
2018-09-08T02:10:16.098Z,12.80
2018-09-08T02:12:47.801Z,12.80
2018-09-08T02:15:19.591Z,12.90
2018-09-08T02:17:51.109Z,12.80
2018-09-08T02:20:21.976Z,12.80
2018-09-08T02:22:52.932Z,12.80
2018-09-08T02:25:24.075Z,12.80
2018-09-08T02:27:54.511Z,12.80
2018-09-08T02:30:25.352Z,12.80
2018-09-08T02:32:55.678Z,12.70
2018-09-08T02:35:27.145Z,12.60
2018-09-08T02:37:57.592Z,12.50
2018-09-08T02:40:27.986Z,12.50
2018-09-08T02:42:58.858Z,13.40
2018-09-08T02:45:29.371Z,12.30
2018-09-08T02:47:59.989Z,12.40
2018-09-08T02:50:29.756Z,12.50
2018-09-08T02:52:58.275Z,12.40
2018-09-08T02:55:26.843Z,12.60
2018-09-08T02:57:55.704Z,12.70
2018-09-08T03:00:24.381Z,12.70
2018-09-08T03:02:53.136Z,12.60
2018-09-08T03:05:22.216Z,12.70
2018-09-08T03:07:50.892Z,12.70
2018-09-08T03:10:19.893Z,12.70
2018-09-08T03:12:48.800Z,12.60
2018-09-08T03:15:17.278Z,12.50
2018-09-08T03:17:45.843Z,12.40
2018-09-08T03:20:14.420Z,12.40
2018-09-08T03:22:42.878Z,12.50
2018-09-08T03:25:11.459Z,12.60
2018-09-08T03:27:39.890Z,12.50
2018-09-08T03:30:08.345Z,12.50
2018-09-08T03:32:37.099Z,12.40
2018-09-08T03:35:07.409Z,12.40
2018-09-08T03:37:35.866Z,12.40
2018-09-08T03:40:04.698Z,12.40
2018-09-08T03:42:33.294Z,12.40
2018-09-08T03:45:02.010Z,12.30
2018-09-08T03:47:30.608Z,12.30
2018-09-08T03:50:00.056Z,12.60
2018-09-08T03:52:28.493Z,12.30
2018-09-08T03:54:56.953Z,12.20
2018-09-08T03:57:25.746Z,12.20
2018-09-08T03:59:54.156Z,12.30
2018-09-08T04:02:22.574Z,12.30
2018-09-08T04:04:53.445Z,12.10
2018-09-08T04:07:23.843Z,12.10
2018-09-08T04:09:54.195Z,12.20
2018-09-08T04:12:24.923Z,12.10
2018-09-08T04:14:56.023Z,12.10
2018-09-08T04:17:27.399Z,12.30
2018-09-08T04:19:58.086Z,11.70
2018-09-08T04:22:32.738Z,12.40
2018-09-08T04:25:11.216Z,12.40
2018-09-08T04:27:42.139Z,12.50
2018-09-08T04:30:12.585Z,12.30
2018-09-08T04:32:45.149Z,12.30
2018-09-08T04:35:15.535Z,12.30
2018-09-08T04:37:45.958Z,12.30
2018-09-08T04:40:17.958Z,12.30
2018-09-08T04:42:49.281Z,11.50
2018-09-08T04:45:19.690Z,12.30
2018-09-08T04:47:50.052Z,12.30
2018-09-08T04:50:20.373Z,12.30
2018-09-08T04:52:50.842Z,12.30
2018-09-08T04:55:21.330Z,12.30
2018-09-08T04:57:52.160Z,12.30
2018-09-08T05:00:22.610Z,12.30
2018-09-08T05:02:52.944Z,12.20
2018-09-08T05:05:23.433Z,12.30
2018-09-08T05:07:53.782Z,12.30
2018-09-08T05:10:24.201Z,12.40
2018-09-08T05:12:54.887Z,11.50
2018-09-08T05:15:25.375Z,12.40
2018-09-08T05:17:55.988Z,12.40
2018-09-08T05:20:26.553Z,12.40
2018-09-08T05:22:57.018Z,12.50
2018-09-08T05:25:27.496Z,12.50
2018-09-08T05:27:58.257Z,12.60
2018-09-08T05:30:28.779Z,12.60
2018-09-08T05:32:59.273Z,12.60
2018-09-08T05:35:29.736Z,12.60
2018-09-08T05:38:00.265Z,11.60
2018-09-08T05:40:30.671Z,12.80
2018-09-08T05:43:01.110Z,12.70
2018-09-08T05:45:32.677Z,11.80
2018-09-08T05:48:04.558Z,12.70
2018-09-08T05:50:34.971Z,12.80
2018-09-08T05:53:05.483Z,12.80
2018-09-08T05:55:36.668Z,12.80
2018-09-08T05:58:07.458Z,12.90
2018-09-08T06:00:38.989Z,12.90
2018-09-08T06:03:10.342Z,12.80
2018-09-08T06:05:42.717Z,12.80
2018-09-08T06:08:13.391Z,12.90
2018-09-08T06:10:45.605Z,13.20
2018-09-08T06:13:16.633Z,13.20
2018-09-08T06:15:48.310Z,13.20
2018-09-08T06:18:21.655Z,12.70
2018-09-08T06:20:52.622Z,13.40
2018-09-08T06:23:23.966Z,13.50
2018-09-08T06:25:54.976Z,13.10
2018-09-08T06:28:25.805Z,13.60
2018-09-08T06:30:56.870Z,13.70
2018-09-08T06:33:29.280Z,13.00
2018-09-08T06:36:00.233Z,13.90
2018-09-08T06:38:31.830Z,14.00
2018-09-08T06:41:04.501Z,14.00
2018-09-08T06:43:36.827Z,14.00
2018-09-08T06:46:09.260Z,13.30
2018-09-08T06:48:40.414Z,14.10
2018-09-08T06:51:11.450Z,14.30
2018-09-08T06:53:42.977Z,14.30
2018-09-08T06:56:14.340Z,14.40
2018-09-08T06:58:45.334Z,14.50
2018-09-08T07:01:16.480Z,14.50
2018-09-08T07:03:47.769Z,14.60
2018-09-08T07:06:18.670Z,14.80
2018-09-08T07:08:51.318Z,14.70
2018-09-08T07:11:26.838Z,14.40
2018-09-08T07:14:01.105Z,14.20
2018-09-08T07:16:36.282Z,14.10
2018-09-08T07:19:12.246Z,14.10
2018-09-08T07:21:44.621Z,14.10
2018-09-08T07:24:18.209Z,14.10
2018-09-08T07:26:51.343Z,14.40
2018-09-08T07:29:24.028Z,14.00
2018-09-08T07:31:55.953Z,14.10
2018-09-08T07:34:28.456Z,14.10
2018-09-08T07:37:06.722Z,14.60
2018-09-08T07:39:43.171Z,15.10
2018-09-08T07:42:15.971Z,15.50
2018-09-08T07:44:49.944Z,15.50
2018-09-08T07:47:25.030Z,15.50
2018-09-08T07:49:59.124Z,15.80
2018-09-08T07:52:32.600Z,15.60
2018-09-08T07:55:09.395Z,15.90
2018-09-08T07:57:41.664Z,14.50
2018-09-08T08:00:15.345Z,16.30
2018-09-08T08:02:46.730Z,16.50
2018-09-08T08:05:36.377Z,16.20
2018-09-08T08:08:12.978Z,16.40
2018-09-08T08:10:45.934Z,16.70
2018-09-08T08:13:18.702Z,17.00
2018-09-08T08:15:50.063Z,17.20
2018-09-08T08:18:22.527Z,15.00
2018-09-08T08:20:58.524Z,17.20
2018-09-08T08:23:34.721Z,17.50
2018-09-08T08:26:14.440Z,17.80
2018-09-08T08:28:46.425Z,17.90
2018-09-08T08:31:21.175Z,17.90
2018-09-08T08:33:54.641Z,17.90
2018-09-08T08:36:27.721Z,17.80
2018-09-08T08:39:04.658Z,17.70
2018-09-08T08:41:43.715Z,17.20
2018-09-08T08:44:15.618Z,17.20
2018-09-08T08:46:48.460Z,17.00
2018-09-08T08:49:21.967Z,17.10
2018-09-08T08:52:04.254Z,17.10
2018-09-08T08:54:47.612Z,17.10
2018-09-08T08:57:19.212Z,16.90
2018-09-08T08:59:51.089Z,17.30
2018-09-08T09:02:22.950Z,17.50
2018-09-08T09:05:00.484Z,18.50
2018-09-08T09:07:33.889Z,16.30
2018-09-08T09:10:07.684Z,17.60
2018-09-08T09:12:40.851Z,17.90
2018-09-08T09:15:14.580Z,17.90
2018-09-08T09:17:47.097Z,17.90
2018-09-08T09:20:29.652Z,17.90
2018-09-08T09:23:12.595Z,17.70
2018-09-08T09:25:45.916Z,17.90
2018-09-08T09:28:22.802Z,16.50
2018-09-08T09:31:01.666Z,17.10
2018-09-08T09:33:36.346Z,17.90
2018-09-08T09:36:09.525Z,16.70
2018-09-08T09:38:42.378Z,17.10
2018-09-08T09:41:17.045Z,17.70
2018-09-08T09:43:49.940Z,17.60
2018-09-08T09:46:24.116Z,17.70
2018-09-08T09:48:59.167Z,17.80
2018-09-08T09:51:31.784Z,17.90
2018-09-08T09:54:11.320Z,18.40
2018-09-08T09:56:44.968Z,18.60
2018-09-08T09:59:17.420Z,18.80
2018-09-08T10:01:53.889Z,18.80
2018-09-08T10:04:28.087Z,18.90
2018-09-08T10:07:02.816Z,19.00
2018-09-08T10:09:38.485Z,18.90
2018-09-08T10:12:12.836Z,18.90
2018-09-08T10:14:46.310Z,18.80
2018-09-08T10:17:18.321Z,18.40
2018-09-08T10:19:50.796Z,18.90
2018-09-08T10:22:24.991Z,18.90
2018-09-08T10:24:58.159Z,18.90
2018-09-08T10:27:34.335Z,18.70
2018-09-08T10:30:10.759Z,18.70
2018-09-08T10:32:43.757Z,18.60
2018-09-08T10:35:20.623Z,18.80
2018-09-08T10:37:56.090Z,18.50
2018-09-08T10:40:33.541Z,18.50
2018-09-08T10:43:08.476Z,18.70
2018-09-08T10:45:46.530Z,18.80
2018-09-08T10:48:21.838Z,18.80
2018-09-08T10:50:56.827Z,19.00
2018-09-08T10:53:37.880Z,19.20
2018-09-08T10:56:14.144Z,18.80
2018-09-08T10:58:46.239Z,19.30
2018-09-08T11:01:18.750Z,19.40
2018-09-08T11:03:53.273Z,19.80
2018-09-08T11:06:27.587Z,19.90
2018-09-08T11:09:03.765Z,20.00
2018-09-08T11:11:38.668Z,20.00
2018-09-08T11:14:11.394Z,20.10
2018-09-08T11:16:44.143Z,19.90
2018-09-08T11:19:18.504Z,19.80
2018-09-08T11:21:53.991Z,19.70
2018-09-08T11:24:27.997Z,19.60
2018-09-08T11:27:02.133Z,19.60
2018-09-08T11:29:37.897Z,19.60
2018-09-08T11:32:10.781Z,19.70
2018-09-08T11:34:44.689Z,19.70
2018-09-08T11:37:19.350Z,19.60
2018-09-08T11:39:52.809Z,19.50
2018-09-08T11:42:25.987Z,19.60
2018-09-08T11:45:05.178Z,19.70
2018-09-08T11:47:40.652Z,19.80
2018-09-08T11:50:17.009Z,20.00
2018-09-08T11:52:54.695Z,20.20
2018-09-08T11:55:27.500Z,20.10
2018-09-08T11:57:59.641Z,20.10
2018-09-08T12:00:33.343Z,20.10
2018-09-08T12:03:06.204Z,20.00
2018-09-08T12:05:38.673Z,20.10
2018-09-08T12:08:21.087Z,20.30
2018-09-08T12:10:55.582Z,20.50
2018-09-08T12:13:33.156Z,20.40
2018-09-08T12:16:06.746Z,20.30
2018-09-08T12:18:40.160Z,20.30
2018-09-08T12:23:53.565Z,19.90
2018-09-08T12:26:27.375Z,20.20
2018-09-08T12:29:01.172Z,20.20
2018-09-08T12:31:34.077Z,19.70
2018-09-08T12:34:08.136Z,20.30
2018-09-08T12:36:42.462Z,20.30
2018-09-08T12:39:14.407Z,20.60
2018-09-08T12:41:48.803Z,20.80
2018-09-08T12:44:24.114Z,21.30
2018-09-08T12:46:55.993Z,20.40
2018-09-08T12:49:30.804Z,19.50
2018-09-08T12:52:08.663Z,20.20
2018-09-08T12:54:42.871Z,20.20
2018-09-08T12:57:23.878Z,20.50
2018-09-08T13:00:00.614Z,20.40
2018-09-08T13:02:36.678Z,19.40
2018-09-08T13:05:15.081Z,20.50
2018-09-08T13:07:47.669Z,20.70
2018-09-08T13:10:23.908Z,20.80
2018-09-08T13:13:04.535Z,20.70
2018-09-08T13:15:42.121Z,20.70
2018-09-08T13:18:19.113Z,21.10
2018-09-08T13:20:58.445Z,21.60
2018-09-08T13:23:30.811Z,21.80
2018-09-08T13:26:12.061Z,21.90
2018-09-08T13:28:45.987Z,22.10
2018-09-08T13:31:28.005Z,21.90
2018-09-08T13:34:04.161Z,21.40
2018-09-08T13:36:43.327Z,21.20
2018-09-08T13:39:15.717Z,21.30
2018-09-08T13:41:50.805Z,20.70
2018-09-08T13:44:24.187Z,20.90
2018-09-08T13:46:59.449Z,21.10
2018-09-08T13:49:33.290Z,21.30
2018-09-08T13:52:10.620Z,21.40
2018-09-08T13:54:43.809Z,21.50
2018-09-08T13:57:20.258Z,21.60
2018-09-08T13:59:56.178Z,21.80
2018-09-08T14:02:39.123Z,21.70
2018-09-08T14:05:15.053Z,21.60
2018-09-08T14:07:56.635Z,21.90
2018-09-08T14:10:29.721Z,22.00
2018-09-08T14:13:03.882Z,22.20
2018-09-08T14:15:38.344Z,22.30
2018-09-08T14:18:12.333Z,22.40
2018-09-08T14:20:47.791Z,22.50
2018-09-08T14:23:21.805Z,23.10
2018-09-08T14:25:53.872Z,21.80
2018-09-08T14:28:26.124Z,21.90
2018-09-08T14:30:59.524Z,22.10
2018-09-08T14:33:32.287Z,22.10
2018-09-08T14:36:06.720Z,22.00
2018-09-08T14:38:40.826Z,22.20
2018-09-08T14:41:14.121Z,22.20
2018-09-08T14:43:47.731Z,22.40
2018-09-08T14:46:24.116Z,22.60
2018-09-08T14:49:00.269Z,22.70
2018-09-08T14:51:43.395Z,22.60
2018-09-08T14:54:19.198Z,22.10
2018-09-08T14:56:58.146Z,22.30
2018-09-08T14:59:34.152Z,22.50
2018-09-08T15:02:06.391Z,22.80
2018-09-08T15:04:42.515Z,22.90
2018-09-08T15:07:16.454Z,22.90
2018-09-08T15:09:48.662Z,22.90
2018-09-08T15:12:21.601Z,24.20
2018-09-08T15:14:53.689Z,22.70
2018-09-08T15:17:29.368Z,21.30
2018-09-08T15:20:00.793Z,22.60
2018-09-08T15:22:35.242Z,22.50
2018-09-08T15:25:10.492Z,22.60
2018-09-08T15:27:43.149Z,22.60
2018-09-08T15:30:16.864Z,22.50
2018-09-08T15:32:49.157Z,22.40
2018-09-08T15:35:22.790Z,22.40
2018-09-08T15:37:55.597Z,22.40
2018-09-08T15:40:28.678Z,22.50
2018-09-08T15:43:05.098Z,22.30
2018-09-08T15:45:43.063Z,22.00
2018-09-08T15:48:18.296Z,22.10
2018-09-08T15:50:53.829Z,22.30
2018-09-08T15:53:26.072Z,22.60
2018-09-08T15:56:01.272Z,22.70
2018-09-08T15:58:35.959Z,22.80
2018-09-08T16:01:10.238Z,22.80
2018-09-08T16:03:46.682Z,22.70
2018-09-08T16:06:21.221Z,22.70
2018-09-08T16:08:54.583Z,22.80
2018-09-08T16:11:29.808Z,22.70
2018-09-08T16:14:03.984Z,22.70
2018-09-08T16:16:37.660Z,22.80
2018-09-08T16:19:10.927Z,22.70
2018-09-08T16:21:44.645Z,22.60
2018-09-08T16:24:17.014Z,22.20
2018-09-08T16:26:51.569Z,23.70
2018-09-08T16:29:23.731Z,22.60
2018-09-08T16:31:55.408Z,22.50
2018-09-08T16:34:33.460Z,22.40
2018-09-08T16:37:08.343Z,22.40
2018-09-08T16:39:41.346Z,22.50
2018-09-08T16:42:18.584Z,22.50
2018-09-08T16:44:52.331Z,22.60
2018-09-08T16:47:27.776Z,22.40
2018-09-08T16:50:06.057Z,22.30
2018-09-08T16:52:39.188Z,22.30
2018-09-08T16:55:11.504Z,22.20
2018-09-08T16:57:46.239Z,22.20
2018-09-08T17:00:21.730Z,22.10
2018-09-08T17:02:54.449Z,22.10
2018-09-08T17:05:29.800Z,22.10
2018-09-08T17:08:04.932Z,22.10
2018-09-08T17:10:38.274Z,22.10
2018-09-08T17:13:12.148Z,21.70
2018-09-08T17:15:44.387Z,21.50
2018-09-08T17:18:17.130Z,21.40
2018-09-08T17:20:53.696Z,21.50
2018-09-08T17:23:26.349Z,21.90
2018-09-08T17:25:59.116Z,21.60
2018-09-08T17:28:34.054Z,21.70
2018-09-08T17:31:09.357Z,22.50
2018-09-08T17:33:45.540Z,19.90
2018-09-08T17:36:22.672Z,21.50
2018-09-08T17:38:58.703Z,21.40
2018-09-08T17:41:30.804Z,21.30
2018-09-08T17:44:09.686Z,21.20
2018-09-08T17:46:46.075Z,20.10
2018-09-08T17:49:18.761Z,21.10
2018-09-08T17:51:50.443Z,21.70
2018-09-08T17:54:22.490Z,20.90
2018-09-08T17:56:55.581Z,20.90
2018-09-08T17:59:29.942Z,20.80
2018-09-08T18:02:12.851Z,20.70
2018-09-08T18:04:49.372Z,20.50
2018-09-08T18:07:33.291Z,20.50
2018-09-08T18:10:11.491Z,20.40
2018-09-08T18:12:47.938Z,20.30
2018-09-08T18:15:27.931Z,20.20
2018-09-08T18:18:06.800Z,20.20
2018-09-08T18:20:41.365Z,20.20
2018-09-08T18:23:14.910Z,20.10
2018-09-08T18:25:49.524Z,20.00
2018-09-08T18:28:24.594Z,20.00
2018-09-08T18:30:58.058Z,20.00
2018-09-08T18:33:33.429Z,19.80
2018-09-08T18:36:17.692Z,18.90
2018-09-08T18:38:50.787Z,19.50
2018-09-08T18:41:23.248Z,19.50
2018-09-08T18:43:58.628Z,19.50
2018-09-08T18:46:34.395Z,19.60
2018-09-08T18:49:10.740Z,19.50
2018-09-08T18:51:48.045Z,19.50
2018-09-08T18:54:42.584Z,20.70
2018-09-08T18:57:18.253Z,19.60
2018-09-08T18:59:53.253Z,19.40
2018-09-08T19:02:27.364Z,19.30
2018-09-08T19:05:07.878Z,19.00
2018-09-08T19:07:45.781Z,18.90
2018-09-08T19:10:21.105Z,18.70
2018-09-08T19:13:01.967Z,18.60
2018-09-08T19:15:42.206Z,18.60
2018-09-08T19:20:57.910Z,18.90
2018-09-08T19:23:36.433Z,18.90
2018-09-08T19:26:08.780Z,18.80
2018-09-08T19:28:47.690Z,18.70
2018-09-08T19:31:21.989Z,18.80
2018-09-08T19:33:55.440Z,18.90
2018-09-08T19:36:27.938Z,18.90
2018-09-08T19:39:03.074Z,19.00
2018-09-08T19:41:37.308Z,19.00
2018-09-08T19:44:12.386Z,18.90
2018-09-08T19:46:50.624Z,18.90
2018-09-08T19:49:27.037Z,18.60
2018-09-08T19:52:06.120Z,18.40
2018-09-08T19:54:38.887Z,18.40
2018-09-08T19:57:23.814Z,18.50
2018-09-08T20:00:00.564Z,18.50
2018-09-08T20:02:36.414Z,18.40
2018-09-08T20:18:32.076Z,18.20
2018-09-08T20:21:03.260Z,18.20
2018-09-08T20:23:33.571Z,19.90
2018-09-08T20:26:04.413Z,18.20
2018-09-08T20:28:34.864Z,18.20
2018-09-08T20:31:06.037Z,18.20
2018-09-08T20:33:36.725Z,18.30
2018-09-08T20:36:07.231Z,18.00
2018-09-08T20:38:38.256Z,18.10
2018-09-08T20:41:08.610Z,18.10
2018-09-08T20:43:38.950Z,18.20
2018-09-08T20:46:10.276Z,18.20
2018-09-08T20:48:41.380Z,18.20
2018-09-08T20:51:13.997Z,18.20
2018-09-08T20:53:44.379Z,19.40
2018-09-08T20:56:14.567Z,18.30
2018-09-08T20:58:44.938Z,18.20
2018-09-08T21:01:15.263Z,18.20
2018-09-08T21:03:45.589Z,18.20
2018-09-08T21:06:16.651Z,18.10
2018-09-08T21:08:48.121Z,18.10
2018-09-08T21:11:18.528Z,18.10
2018-09-08T21:13:52.482Z,18.10
2018-09-08T21:16:22.719Z,18.10
2018-09-08T21:18:52.959Z,18.10
2018-09-08T21:21:24.034Z,17.90
2018-09-08T21:23:55.420Z,18.00
2018-09-08T21:26:27.506Z,18.10
2018-09-08T21:28:59.403Z,18.00
2018-09-08T21:31:31.657Z,17.90
2018-09-08T21:34:04.640Z,17.70
2018-09-08T21:36:35.638Z,17.70
2018-09-08T21:39:08.857Z,17.80
2018-09-08T21:41:44.019Z,17.90
2018-09-08T21:44:14.496Z,17.90
2018-09-08T21:46:46.308Z,18.00
2018-09-08T21:49:17.692Z,17.90
2018-09-08T21:51:47.507Z,18.30
2018-09-08T21:54:18.172Z,17.90
2018-09-08T21:56:48.517Z,18.00
2018-09-08T21:59:21.590Z,17.80
2018-09-08T22:01:53.008Z,19.30
2018-09-08T22:04:24.469Z,17.70
2018-09-08T22:07:03.291Z,17.60
2018-09-08T22:09:34.271Z,17.60
2018-09-08T22:12:12.838Z,17.50
2018-09-08T22:14:44.890Z,18.60
2018-09-08T22:17:16.394Z,17.50
2018-09-08T22:19:48.926Z,17.50
2018-09-08T22:22:27.854Z,17.50
2018-09-08T22:24:58.564Z,17.50
2018-09-08T22:27:29.486Z,17.30
2018-09-08T22:30:03.214Z,17.20
2018-09-08T22:32:35.373Z,17.30
2018-09-08T22:35:09.637Z,17.20
2018-09-08T22:37:41.234Z,17.20
2018-09-08T22:40:11.204Z,17.10
2018-09-08T22:42:42.081Z,17.00
2018-09-08T22:45:16.680Z,17.10
2018-09-08T22:47:47.115Z,17.10
2018-09-08T22:50:18.547Z,17.20
2018-09-08T22:52:48.327Z,17.20
2018-09-08T22:55:18.899Z,17.10
2018-09-08T22:57:50.895Z,17.20
2018-09-08T23:00:21.938Z,17.20
2018-09-08T23:02:57.648Z,17.10
2018-09-08T23:05:28.388Z,17.20
2018-09-08T23:07:59.736Z,18.50
2018-09-08T23:10:31.313Z,17.20
2018-09-08T23:13:02.567Z,15.70
2018-09-08T23:15:34.293Z,17.00
2018-09-08T23:18:05.687Z,17.10
2018-09-08T23:20:35.818Z,17.10
2018-09-08T23:23:08.601Z,17.00
2018-09-08T23:25:39.732Z,17.00
2018-09-08T23:28:10.863Z,16.80
2018-09-08T23:30:41.228Z,16.80
2018-09-08T23:33:11.642Z,16.80
2018-09-08T23:35:41.935Z,16.70
2018-09-08T23:38:11.955Z,16.70
2018-09-08T23:40:46.740Z,16.80
2018-09-08T23:43:16.735Z,16.70
2018-09-08T23:45:46.960Z,16.60
2018-09-08T23:48:17.425Z,17.50
2018-09-08T23:50:47.187Z,16.40
2018-09-08T23:53:17.265Z,16.60
2018-09-08T23:55:47.708Z,16.60
2018-09-08T23:58:17.436Z,16.60
